Time;durP1;ratioP1;P1;durP2;ratioP2;P2;SDS_P1;SDS_P2;PMS_P1;PMS_P2;Temp;Humidity;BMP_temperature;BMP_pressure;BME280_temperature;BME280_humidity;BME280_pressure;Samples;Min_cycle;Max_cycle;Signal;HPM_P1;HPM_P2
2022/09/20 00:01:19;;;;;;;5.20;2.07;;;9.40;99.90;;;;;;5078727;28;20559;-83
2022/09/20 00:03:50;;;;;;;2.10;1.90;;;9.30;1.00;;;;;;5072591;28;21017;-83
2022/09/20 00:06:20;;;;;;;3.83;2.07;;;9.40;1.00;;;;;;5075948;28;20487;-81
2022/09/20 00:08:49;;;;;;;2.23;2.00;;;9.40;1.00;;;;;;5080641;28;20513;-82
2022/09/20 00:11:19;;;;;;;4.07;1.80;;;9.50;99.90;;;;;;5081476;28;20456;-83
2022/09/20 00:13:50;;;;;;;2.60;2.40;;;9.40;99.90;;;;;;5073583;28;20474;-82
2022/09/20 00:16:21;;;;;;;2.30;2.03;;;9.50;1.00;;;;;;5074996;28;20451;-83
2022/09/20 00:18:52;;;;;;;2.07;1.90;;;9.40;1.00;;;;;;5077007;28;20536;-83
2022/09/20 00:21:22;;;;;;;2.20;2.00;;;9.30;99.90;;;;;;5073225;28;20549;-82
2022/09/20 00:23:51;;;;;;;2.50;1.90;;;9.20;99.90;;;;;;5073572;28;20566;-83
2022/09/20 00:26:19;;;;;;;2.30;2.10;;;9.30;1.00;;;;;;5073921;28;20545;-82
2022/09/20 00:28:48;;;;;;;2.40;1.70;;;9.20;99.90;;;;;;5078229;28;20453;-82
2022/09/20 00:31:16;;;;;;;2.47;2.27;;;9.20;24.00;;;;;;5076360;28;20455;-83
2022/09/20 00:36:31;;;;;;;2.03;1.80;;;9.20;38.30;;;;;;5078334;28;20483;-81
2022/09/20 00:39:01;;;;;;;1.87;1.77;;;9.20;99.90;;;;;;5078250;28;21121;-82
2022/09/20 00:41:31;;;;;;;2.87;1.97;;;9.10;1.00;;;;;;5078369;28;20486;-83
2022/09/20 00:44:00;;;;;;;3.10;2.03;;;9.20;99.90;;;;;;5075575;28;21062;-82
2022/09/20 00:46:35;;;;;;;1.83;1.60;;;9.00;99.90;;;;;;5072722;28;22356;-83
2022/09/20 00:49:14;;;;;;;3.57;2.20;;;9.00;1.00;;;;;;5073983;28;20452;-83
2022/09/20 00:51:47;;;;;;;2.17;2.00;;;9.00;99.90;;;;;;5073743;28;20549;-82
2022/09/20 00:54:17;;;;;;;2.83;2.30;;;9.00;99.90;;;;;;5076049;28;20898;-83
2022/09/20 00:56:48;;;;;;;7.03;1.90;;;9.00;1.00;;;;;;5075600;28;21214;-82
2022/09/20 00:59:19;;;;;;;3.77;1.60;;;9.00;99.90;;;;;;5076123;28;20541;-83
2022/09/20 01:01:52;;;;;;;2.73;1.90;;;9.00;99.90;;;;;;5072068;28;20487;-83
2022/09/20 01:04:25;;;;;;;3.20;1.70;;;9.10;1.00;;;;;;5073812;28;20470;-82
2022/09/20 01:06:59;;;;;;;3.87;2.00;;;9.10;99.90;;;;;;5073934;28;20446;-83
2022/09/20 01:09:27;;;;;;;2.00;1.90;;;9.10;99.90;;;;;;5074032;28;20456;-82
2022/09/20 01:11:58;;;;;;;2.00;1.90;;;9.00;99.90;;;;;;5077770;28;20556;-82
2022/09/20 01:14:27;;;;;;;2.67;2.47;;;9.00;1.00;;;;;;5087952;28;20485;-82
2022/09/20 01:16:57;;;;;;;2.10;1.90;;;8.90;99.90;;;;;;5078578;28;20500;-84
2022/09/20 01:19:34;;;;;;;2.23;1.60;;;9.00;99.90;;;;;;5083431;28;20464;-82
2022/09/20 01:22:11;;;;;;;2.60;2.07;;;9.20;97.50;;;;;;5076813;28;20561;-82
2022/09/20 01:24:47;;;;;;;5.03;2.30;;;9.10;99.90;;;;;;5076645;28;20459;-82
2022/09/20 01:27:23;;;;;;;2.00;1.70;;;9.10;99.90;;;;;;5083615;28;21202;-84
2022/09/20 01:30:03;;;;;;;2.00;1.73;;;9.10;1.00;;;;;;5083176;28;20462;-82
2022/09/20 01:32:41;;;;;;;2.63;2.43;;;8.90;1.00;;;;;;5088394;28;21097;-82
2022/09/20 01:35:11;;;;;;;2.50;2.30;;;8.80;1.00;;;;;;5081406;28;20538;-82
2022/09/20 01:37:50;;;;;;;3.10;1.90;;;8.90;1.00;;;;;;5088858;28;20522;-82
2022/09/20 01:40:25;;;;;;;3.03;1.70;;;8.90;1.00;;;;;;5079976;28;20587;-82
2022/09/20 01:43:03;;;;;;;3.03;1.90;;;8.70;1.00;;;;;;5082241;28;20480;-81
2022/09/20 01:45:33;;;;;;;3.47;2.00;;;8.70;99.90;;;;;;5085744;28;20449;-81
2022/09/20 01:48:13;;;;;;;5.00;2.20;;;8.70;1.00;;;;;;5075184;28;20475;-82
2022/09/20 01:51:00;;;;;;;2.03;1.60;;;8.70;99.90;;;;;;5072305;28;20942;-81
2022/09/20 01:54:10;;;;;;;1.90;1.67;;;8.70;1.00;;;;;;5074555;28;20530;-81
2022/09/20 01:56:58;;;;;;;3.67;2.00;;;8.70;99.90;;;;;;5039004;28;20461;-82
2022/09/20 01:59:56;;;;;;;2.07;1.90;;;8.70;95.10;;;;;;5075044;28;20444;-82
2022/09/20 02:03:26;;;;;;;2.53;1.90;;;8.90;1.00;;;;;;5073373;28;20576;-81
2022/09/20 02:06:11;;;;;;;2.40;2.27;;;8.80;1.00;;;;;;5071899;28;21004;-83
2022/09/20 02:09:01;;;;;;;2.17;1.77;;;8.70;92.10;;;;;;5067101;28;21022;-82
2022/09/20 02:11:44;;;;;;;2.33;1.80;;;8.70;1.00;;;;;;5078558;28;20553;-81
2022/09/20 02:14:29;;;;;;;2.60;1.90;;;8.70;1.00;;;;;;5071312;28;20566;-81
2022/09/20 02:17:06;;;;;;;2.80;1.97;;;8.50;1.00;;;;;;5070793;28;20515;-81
2022/09/20 02:19:49;;;;;;;2.20;2.00;;;8.60;1.00;;;;;;5069930;28;20484;-82
2022/09/20 02:22:39;;;;;;;2.47;2.27;;;8.60;99.90;;;;;;5074636;28;20469;-81
2022/09/20 02:25:26;;;;;;;2.20;2.07;;;8.50;99.90;;;;;;5075170;28;20547;-81
2022/09/20 02:28:08;;;;;;;1.77;1.67;;;8.50;99.90;;;;;;5079681;28;21023;-82
2022/09/20 02:30:49;;;;;;;3.90;1.50;;;8.50;1.00;;;;;;5083522;28;20502;-82
2022/09/20 02:33:35;;;;;;;1.77;1.50;;;8.60;7.40;;;;;;5070331;28;20461;-82
2022/09/20 02:36:25;;;;;;;2.70;2.50;;;8.60;1.00;;;;;;5072424;28;20967;-83
2022/09/20 02:39:02;;;;;;;5.20;2.40;;;8.60;99.90;;;;;;5070330;28;20454;-82
2022/09/20 02:41:53;;;;;;;2.93;2.63;;;8.60;99.90;;;;;;5073239;28;20530;-81
2022/09/20 02:44:33;;;;;;;2.50;2.07;;;8.60;1.00;;;;;;5071857;28;20524;-82
2022/09/20 02:47:12;;;;;;;2.93;1.70;;;8.70;99.90;;;;;;5071289;28;20494;-81
2022/09/20 02:49:53;;;;;;;1.97;1.87;;;8.90;99.90;;;;;;5073697;28;20447;-82
2022/09/20 02:52:32;;;;;;;1.90;1.80;;;8.80;1.00;;;;;;5073503;28;20512;-83
2022/09/20 02:55:05;;;;;;;3.60;2.00;;;8.80;99.90;;;;;;5073110;28;20480;-83
2022/09/20 02:57:44;;;;;;;2.40;2.20;;;8.70;99.90;;;;;;5072000;28;20991;-83
2022/09/20 03:00:18;;;;;;;2.90;2.10;;;8.50;1.00;;;;;;5073712;28;20450;-83
2022/09/20 03:03:03;;;;;;;2.87;2.37;;;8.40;1.00;;;;;;5072863;28;20461;-81
2022/09/20 03:05:42;;;;;;;2.00;1.83;;;8.40;99.90;;;;;;5069889;28;20498;-81
2022/09/20 03:08:33;;;;;;;2.20;1.97;;;8.50;99.90;;;;;;5072012;28;20551;-82
2022/09/20 03:11:11;;;;;;;3.37;2.27;;;8.40;99.90;;;;;;5075822;28;20494;-82
2022/09/20 03:13:54;;;;;;;8.27;3.40;;;8.50;99.90;;;;;;5076436;28;20463;-81
2022/09/20 03:16:31;;;;;;;3.10;1.97;;;8.30;99.90;;;;;;5072329;28;20440;-81
2022/09/20 03:19:13;;;;;;;2.47;2.27;;;8.30;99.90;;;;;;5086054;28;20577;-81
2022/09/20 03:21:52;;;;;;;3.10;1.87;;;8.50;99.90;;;;;;5082933;28;20544;-81
2022/09/20 03:24:39;;;;;;;1.93;1.80;;;8.40;1.00;;;;;;5078507;28;21001;-81
2022/09/20 03:27:17;;;;;;;3.37;2.40;;;8.40;1.00;;;;;;5083459;28;20436;-81
2022/09/20 03:29:58;;;;;;;2.63;1.80;;;8.40;1.00;;;;;;5085623;28;20472;-81
2022/09/20 03:32:43;;;;;;;5.63;2.17;;;8.40;99.90;;;;;;5077322;28;20458;-81
2022/09/20 03:35:23;;;;;;;4.80;2.10;;;8.30;1.00;;;;;;5072546;28;20568;-81
2022/09/20 03:38:11;;;;;;;2.90;1.93;;;8.40;1.00;;;;;;5070007;28;20459;-83
2022/09/20 03:41:14;;;;;;;2.07;1.80;;;8.40;99.90;;;;;;5076845;28;20888;-82
2022/09/20 03:44:01;;;;;;;5.83;2.23;;;8.50;99.90;;;;;;5072202;28;20552;-83
2022/09/20 03:46:33;;;;;;;2.70;2.40;;;8.60;1.00;;;;;;5077133;28;20486;-82
2022/09/20 03:49:35;;;;;;;2.50;2.10;;;8.60;99.90;;;;;;5075860;28;20453;-82
2022/09/20 03:52:13;;;;;;;2.83;1.80;;;8.60;1.00;;;;;;5067099;28;21026;-82
2022/09/20 03:55:01;;;;;;;3.30;2.20;;;8.60;99.90;;;;;;5075243;28;20554;-81
2022/09/20 03:57:50;;;;;;;2.07;1.97;;;8.50;99.90;;;;;;5076059;28;20532;-82
2022/09/20 04:00:24;;;;;;;2.20;2.00;;;8.50;99.90;;;;;;5075688;28;20460;-84
2022/09/20 04:03:19;;;;;;;3.00;2.53;;;8.50;99.90;;;;;;5074453;28;20884;-82
2022/09/20 04:06:01;;;;;;;5.27;2.40;;;8.60;1.00;;;;;;5076545;28;20450;-82
2022/09/20 04:08:44;;;;;;;2.30;2.20;;;8.60;1.00;;;;;;5073753;28;20521;-82
2022/09/20 04:11:25;;;;;;;2.57;2.37;;;8.70;99.90;;;;;;5075126;28;20956;-82
2022/09/20 04:14:02;;;;;;;2.60;2.30;;;8.60;1.00;;;;;;5071270;28;21062;-82
2022/09/20 04:16:44;;;;;;;5.63;2.47;;;8.70;99.90;;;;;;5076517;28;20495;-82
2022/09/20 04:19:17;;;;;;;2.30;2.20;;;8.80;99.90;;;;;;5071663;28;20830;-81
2022/09/20 04:21:53;;;;;;;2.60;2.40;;;8.90;99.90;;;;;;5075698;28;20450;-82
2022/09/20 04:24:28;;;;;;;2.30;2.10;;;8.90;1.00;;;;;;5075410;28;20593;-82
2022/09/20 04:27:01;;;;;;;3.33;2.10;;;8.80;99.90;;;;;;5073550;28;20554;-83
2022/09/20 04:29:40;;;;;;;2.50;2.30;;;8.80;1.00;;;;;;5080553;28;20949;-83
2022/09/20 04:32:17;;;;;;;2.03;1.93;;;8.80;1.00;;;;;;5081178;28;20517;-79
2022/09/20 04:37:43;;;;;;;3.13;2.10;;;8.80;30.00;;;;;;5069705;28;20536;-79
2022/09/20 04:40:24;;;;;;;3.50;2.03;;;8.80;29.70;;;;;;5067833;28;20570;-78
2022/09/20 04:43:30;;;;;;;3.03;2.27;;;8.80;1.00;;;;;;5068185;28;20460;-80
2022/09/20 04:46:25;;;;;;;2.73;2.53;;;8.90;1.00;;;;;;5061777;28;20458;-81
2022/09/20 04:49:37;;;;;;;4.03;2.53;;;9.10;1.00;;;;;;5076074;28;20452;-76
2022/09/20 04:52:54;;;;;;;4.33;2.10;;;9.30;99.90;;;;;;5062921;28;20830;-81
2022/09/20 04:55:51;;;;;;;2.73;2.17;;;9.20;1.00;;;;;;5101185;28;20466;-80
2022/09/20 04:58:43;;;;;;;3.17;2.33;;;9.20;48.00;;;;;;5076560;28;20491;-80
2022/09/20 05:01:36;;;;;;;3.23;2.10;;;9.20;87.00;;;;;;5074587;28;20453;-80
2022/09/20 05:04:46;;;;;;;2.63;2.10;;;9.20;1.00;;;;;;5065211;28;20472;-78
2022/09/20 05:07:49;;;;;;;2.00;1.90;;;9.20;99.90;;;;;;5056945;28;20460;-79
2022/09/20 05:11:07;;;;;;;2.03;1.93;;;9.30;99.90;;;;;;5070115;28;20460;-80
2022/09/20 05:13:51;;;;;;;11.03;2.73;;;9.20;1.00;;;;;;5081386;28;20587;-79
2022/09/20 05:16:29;;;;;;;2.80;2.60;;;9.20;1.00;;;;;;5081958;28;20476;-79
2022/09/20 05:19:16;;;;;;;2.67;2.50;;;9.10;1.00;;;;;;5076633;28;20451;-80
2022/09/20 05:21:57;;;;;;;2.53;2.33;;;9.00;99.90;;;;;;5080007;28;20442;-79
2022/09/20 05:24:41;;;;;;;2.90;2.03;;;9.10;99.90;;;;;;5075701;28;20482;-79
2022/09/20 05:27:28;;;;;;;2.73;2.40;;;9.10;99.90;;;;;;5069746;28;20443;-78
2022/09/20 05:30:03;;;;;;;4.70;2.40;;;8.90;68.90;;;;;;5072419;28;20455;-80
2022/09/20 05:32:43;;;;;;;2.50;2.30;;;8.90;99.90;;;;;;5068490;28;21101;-79
2022/09/20 05:35:21;;;;;;;2.80;2.53;;;9.00;1.00;;;;;;5069495;28;20574;-80
2022/09/20 05:37:57;;;;;;;2.47;2.27;;;9.00;99.90;;;;;;5070336;28;20453;-80
2022/09/20 05:40:33;;;;;;;2.93;2.73;;;8.90;28.20;;;;;;5069239;28;20467;-79
2022/09/20 05:43:10;;;;;;;8.83;3.07;;;8.90;99.90;;;;;;5071514;28;20953;-78
2022/09/20 05:46:01;;;;;;;3.00;2.80;;;8.90;99.90;;;;;;5075110;28;20482;-79
2022/09/20 05:48:40;;;;;;;2.93;2.63;;;8.90;68.50;;;;;;5071960;28;20825;-79
2022/09/20 05:51:16;;;;;;;2.80;2.47;;;9.00;68.20;;;;;;5071441;28;20517;-79
2022/09/20 05:54:21;;;;;;;5.57;3.17;;;9.20;99.90;;;;;;5072461;28;20602;-80
2022/09/20 05:56:58;;;;;;;2.47;2.30;;;9.10;99.90;;;;;;5053835;28;21343;-80
2022/09/20 05:59:37;;;;;;;6.67;3.40;;;9.20;99.90;;;;;;5070007;28;20820;-80
2022/09/20 06:02:20;;;;;;;3.83;2.90;;;9.30;99.90;;;;;;5073783;28;21075;-80
2022/09/20 06:05:00;;;;;;;3.63;3.40;;;9.40;67.90;;;;;;5069353;28;20485;-79
2022/09/20 06:07:44;;;;;;;6.00;3.60;;;9.40;99.90;;;;;;5079631;28;20444;-79
2022/09/20 06:10:38;;;;;;;4.07;3.67;;;9.50;99.90;;;;;;5078605;28;20456;-80
2022/09/20 06:13:23;;;;;;;3.80;3.10;;;9.40;99.90;;;;;;5064817;28;20467;-80
2022/09/20 06:15:58;;;;;;;7.17;4.00;;;9.50;99.90;;;;;;5072214;28;20460;-80
2022/09/20 06:18:31;;;;;;;5.17;3.83;;;9.70;99.90;;;;;;5075866;28;21118;-80
2022/09/20 06:21:13;;;;;;;4.10;3.70;;;9.70;99.90;;;;;;5073438;28;20486;-80
2022/09/20 06:23:41;;;;;;;4.00;3.70;;;9.60;99.90;;;;;;5076801;28;20521;-79
2022/09/20 06:26:16;;;;;;;4.37;4.07;;;9.70;99.90;;;;;;5079181;28;20546;-80
2022/09/20 06:28:49;;;;;;;4.37;3.30;;;9.80;99.90;;;;;;5076501;28;21060;-79
2022/09/20 06:31:17;;;;;;;4.43;3.80;;;9.80;99.90;;;;;;5074943;28;20456;-80
2022/09/20 06:33:51;;;;;;;3.70;3.40;;;9.80;99.90;;;;;;5074355;28;21163;-80
2022/09/20 06:42:09;;;;;;;4.77;4.47;;;10.10;99.90;;;;;;5084028;28;20455;-80
2022/09/20 06:44:40;;;;;;;5.07;4.77;;;10.20;99.90;;;;;;5071268;28;20465;-80
2022/09/20 06:47:10;;;;;;;6.70;5.67;;;10.30;99.90;;;;;;5082690;28;21014;-79
2022/09/20 06:49:40;;;;;;;5.70;5.30;;;10.40;99.90;;;;;;5079065;28;20481;-80
2022/09/20 06:52:14;;;;;;;5.53;4.80;;;10.40;99.90;;;;;;5086836;28;20507;-79
2022/09/20 06:54:44;;;;;;;5.73;5.17;;;10.50;99.90;;;;;;5088575;28;20463;-80
2022/09/20 06:57:16;;;;;;;7.03;4.53;;;10.50;99.90;;;;;;5085276;28;20472;-80
2022/09/20 06:59:44;;;;;;;6.13;5.00;;;10.60;1.00;;;;;;5072917;28;20446;-80
2022/09/20 07:02:12;;;;;;;4.70;4.40;;;10.60;27.00;;;;;;5085355;28;21025;-80
2022/09/20 07:04:41;;;;;;;5.77;4.80;;;10.60;99.90;;;;;;5073759;28;20538;-80
2022/09/20 07:07:17;;;;;;;5.93;4.70;;;10.80;99.90;;;;;;5075590;28;20565;-79
2022/09/20 07:09:46;;;;;;;5.30;4.90;;;10.70;99.90;;;;;;5076290;28;20785;-81
2022/09/20 07:12:14;;;;;;;7.87;5.07;;;10.80;1.00;;;;;;5072250;28;20449;-80
2022/09/20 07:14:43;;;;;;;5.20;4.80;;;10.70;60.20;;;;;;5083799;28;20473;-80
2022/09/20 07:17:12;;;;;;;4.63;4.20;;;10.70;1.00;;;;;;5073248;28;20485;-80
2022/09/20 07:19:40;;;;;;;5.13;4.70;;;10.60;99.90;;;;;;5081514;28;20572;-80
2022/09/20 07:22:08;;;;;;;6.80;4.77;;;10.60;99.90;;;;;;5077193;28;20442;-80
2022/09/20 07:24:39;;;;;;;5.17;4.87;;;10.70;98.60;;;;;;5079181;28;20513;-80
2022/09/20 07:27:08;;;;;;;5.17;4.60;;;10.70;1.00;;;;;;5077605;28;20495;-81
2022/09/20 07:29:36;;;;;;;5.43;4.73;;;10.70;99.90;;;;;;5088974;28;20994;-81
2022/09/20 07:32:04;;;;;;;6.23;5.60;;;10.80;1.00;;;;;;5082104;28;20823;-80
2022/09/20 07:34:32;;;;;;;6.13;5.50;;;10.80;99.90;;;;;;5075518;28;20520;-80
2022/09/20 07:37:00;;;;;;;6.70;6.03;;;10.80;99.90;;;;;;5078894;28;20586;-81
2022/09/20 07:39:29;;;;;;;9.13;8.20;;;10.90;1.00;;;;;;5087039;28;20453;-81
2022/09/20 07:42:00;;;;;;;7.07;6.40;;;11.10;1.00;;;;;;5074341;28;20552;-81
2022/09/20 07:44:28;;;;;;;5.50;5.10;;;11.50;99.90;;;;;;5071366;28;20469;-80
2022/09/20 07:46:58;;;;;;;5.53;4.97;;;11.90;1.00;;;;;;5073330;28;20486;-82
2022/09/20 07:49:28;;;;;;;6.23;5.80;;;12.20;1.00;;;;;;5078580;28;20450;-80
2022/09/20 07:51:57;;;;;;;6.93;5.60;;;12.40;99.90;;;;;;5080042;28;20836;-80
2022/09/20 07:54:26;;;;;;;7.00;5.83;;;12.60;1.00;;;;;;5074313;28;20477;-81
2022/09/20 07:56:54;;;;;;;8.83;5.10;;;12.70;99.90;;;;;;5075724;28;20579;-82
2022/09/20 07:59:24;;;;;;;5.00;4.53;;;12.80;99.90;;;;;;5076561;28;20496;-81
2022/09/20 08:01:52;;;;;;;5.23;4.73;;;12.90;99.90;;;;;;5076694;28;21481;-81
2022/09/20 08:04:21;;;;;;;4.90;4.50;;;13.40;1.00;;;;;;5076823;28;20711;-80
2022/09/20 08:06:49;;;;;;;6.70;5.30;;;13.60;99.90;;;;;;5078982;28;20523;-80
2022/09/20 08:09:18;;;;;;;5.37;4.93;;;13.70;99.90;;;;;;5077028;28;20544;-81
2022/09/20 08:11:47;;;;;;;5.37;4.60;;;13.80;99.90;;;;;;5075984;28;20450;-81
2022/09/20 08:14:17;;;;;;;5.10;4.80;;;14.00;1.00;;;;;;5076792;28;20482;-81
2022/09/20 08:16:49;;;;;;;8.17;4.30;;;14.20;1.00;;;;;;5079202;28;21227;-81
2022/09/20 08:19:19;;;;;;;4.60;4.20;;;14.40;1.00;;;;;;5074053;28;20476;-81
2022/09/20 08:21:50;;;;;;;6.10;4.40;;;14.60;1.00;;;;;;5071328;28;20451;-81
2022/09/20 08:24:18;;;;;;;5.00;4.37;;;14.90;1.00;;;;;;5082772;28;20478;-81
2022/09/20 08:26:48;;;;;;;4.87;4.23;;;15.10;1.00;;;;;;5072639;28;20559;-80
2022/09/20 08:29:16;;;;;;;4.77;4.47;;;15.30;99.90;;;;;;5075113;28;20447;-82
2022/09/20 08:31:46;;;;;;;5.10;4.60;;;15.50;99.90;;;;;;5080084;28;20954;-81
2022/09/20 08:34:15;;;;;;;4.30;4.00;;;15.70;99.90;;;;;;5091851;28;20468;-82
2022/09/20 08:36:46;;;;;;;5.57;3.50;;;15.80;99.90;;;;;;5072463;28;20512;-81
2022/09/20 08:39:15;;;;;;;9.30;3.73;;;15.80;99.90;;;;;;5076879;28;20469;-80
2022/09/20 08:42:13;;;;;;;3.60;2.37;;;15.60;99.90;;;;;;5077646;28;20506;-80
2022/09/20 08:44:49;;;;;;;3.97;2.37;;;15.70;99.90;;;;;;5074805;28;20472;-81
2022/09/20 08:47:27;;;;;;;3.10;2.80;;;15.80;99.90;;;;;;5077252;28;21036;-81
2022/09/20 08:49:59;;;;;;;3.50;2.50;;;15.90;99.90;;;;;;5087771;28;20523;-81
2022/09/20 08:52:30;;;;;;;3.77;3.13;;;15.90;99.90;;;;;;5073958;28;20510;-81
2022/09/20 08:55:15;;;;;;;4.35;2.50;;;16.10;99.90;;;;;;5075439;28;20853;-81
2022/09/20 08:57:45;;;;;;;4.93;2.60;;;16.10;99.90;;;;;;5076787;28;20614;-82
2022/09/20 09:00:18;;;;;;;4.60;2.67;;;16.20;99.90;;;;;;5082654;28;20460;-80
2022/09/20 09:02:46;;;;;;;3.33;2.57;;;16.00;99.90;;;;;;5087944;28;20515;-81
2022/09/20 09:05:34;;;;;;;3.57;3.10;;;15.70;99.90;;;;;;5088903;28;20472;-81
2022/09/20 09:08:06;;;;;;;6.13;2.50;;;15.50;99.90;;;;;;5080431;28;20473;-80
2022/09/20 09:10:37;;;;;;;2.70;2.50;;;15.20;99.90;;;;;;5075638;28;20461;-81
2022/09/20 09:13:20;;;;;;;2.80;2.27;;;15.40;99.90;;;;;;5080062;28;20454;-81
2022/09/20 09:15:54;;;;;;;7.53;2.80;;;15.30;99.90;;;;;;5088414;28;20468;-81
2022/09/20 09:18:24;;;;;;;3.47;2.43;;;15.40;99.90;;;;;;5088522;28;20807;-80
2022/09/20 09:21:03;;;;;;;6.57;2.70;;;15.70;99.90;;;;;;5071422;28;20457;-80
2022/09/20 09:23:40;;;;;;;3.90;1.87;;;15.60;99.90;;;;;;5083818;28;20472;-80
2022/09/20 09:26:17;;;;;;;5.33;2.70;;;15.60;99.90;;;;;;5088009;28;20528;-81
2022/09/20 09:28:47;;;;;;;3.30;2.27;;;15.40;99.90;;;;;;5089922;28;20501;-81
2022/09/20 09:31:24;;;;;;;6.83;2.60;;;15.20;99.90;;;;;;5077886;28;20474;-82
2022/09/20 09:33:53;;;;;;;3.60;2.40;;;15.10;99.90;;;;;;5075229;28;20542;-81
2022/09/20 09:36:24;;;;;;;2.07;1.87;;;14.90;99.90;;;;;;5088438;28;20463;-82
2022/09/20 09:39:15;;;;;;;3.57;2.10;;;14.70;99.90;;;;;;5077863;28;20454;-80
2022/09/20 09:41:45;;;;;;;5.90;2.50;;;14.50;99.90;;;;;;5089787;28;21024;-81
2022/09/20 09:44:22;;;;;;;3.23;2.13;;;14.50;99.90;;;;;;5086527;28;20469;-80
2022/09/20 09:46:52;;;;;;;3.77;2.40;;;14.30;99.90;;;;;;5075405;28;20526;-81
2022/09/20 09:49:22;;;;;;;4.20;2.03;;;14.20;99.90;;;;;;5087853;28;20466;-80
2022/09/20 09:52:07;;;;;;;4.20;2.03;;;14.30;99.90;;;;;;5078598;28;20443;-81
2022/09/20 09:54:38;;;;;;;3.83;2.37;;;14.50;99.90;;;;;;5081218;28;20479;-79
2022/09/20 09:57:21;;;;;;;6.27;2.27;;;14.50;99.90;;;;;;5084079;28;20441;-81
2022/09/20 10:00:04;;;;;;;2.73;1.47;;;14.80;99.90;;;;;;5085077;28;20855;-80
2022/09/20 10:03:15;;;;;;;2.23;1.70;;;15.20;99.90;;;;;;5090658;28;20455;-82
2022/09/20 10:05:52;;;;;;;4.10;1.90;;;15.70;99.90;;;;;;5078241;28;20449;-80
2022/09/20 10:08:28;;;;;;;4.53;1.60;;;15.90;99.90;;;;;;5077099;28;21299;-80
2022/09/20 10:11:07;;;;;;;2.40;1.30;;;16.00;99.90;;;;;;5080509;28;20440;-81
2022/09/20 10:13:45;;;;;;;3.83;1.57;;;15.70;99.90;;;;;;5073094;28;20900;-81
2022/09/20 10:16:22;;;;;;;3.30;1.30;;;15.40;99.90;;;;;;5077982;28;20442;-80
2022/09/20 10:18:59;;;;;;;1.70;1.30;;;15.60;99.90;;;;;;5080248;28;20564;-81
2022/09/20 10:21:42;;;;;;;2.67;1.70;;;16.00;99.90;;;;;;5074795;28;20479;-80
2022/09/20 10:24:29;;;;;;;1.80;1.47;;;16.40;99.90;;;;;;5076033;28;20476;-80
2022/09/20 10:27:12;;;;;;;2.50;1.30;;;16.70;99.90;;;;;;5070979;28;20488;-80
2022/09/20 10:29:56;;;;;;;8.70;1.40;;;16.60;99.90;;;;;;5079939;28;20452;-81
2022/09/20 10:32:42;;;;;;;1.40;1.30;;;16.50;99.90;;;;;;5077677;28;20456;-80
2022/09/20 10:35:22;;;;;;;3.93;1.40;;;16.10;99.90;;;;;;5086482;28;20972;-80
2022/09/20 10:38:20;;;;;;;2.80;1.53;;;15.90;99.90;;;;;;5078899;28;21337;-82
2022/09/20 10:44:08;;;;;;;4.10;1.50;;;15.90;99.90;;;;;;5076864;28;20478;-81
2022/09/20 10:46:51;;;;;;;3.37;1.50;;;16.40;99.90;;;;;;5078202;28;20489;-81
2022/09/20 10:49:30;;;;;;;2.40;1.60;;;17.00;99.90;;;;;;5082503;28;20461;-82
2022/09/20 10:52:19;;;;;;;3.10;1.83;;;17.10;99.90;;;;;;5070619;28;20457;-79
2022/09/20 10:55:03;;;;;;;2.40;1.30;;;17.30;99.90;;;;;;5075619;28;20531;-82
2022/09/20 10:57:54;;;;;;;6.90;1.70;;;17.10;99.90;;;;;;5085704;28;20875;-82
2022/09/20 11:00:25;;;;;;;4.50;1.50;;;16.90;99.90;;;;;;5090136;28;20445;-82
2022/09/20 11:03:08;;;;;;;1.30;1.20;;;16.70;99.90;;;;;;5088336;28;20809;-81
2022/09/20 11:05:46;;;;;;;1.93;1.60;;;16.40;99.90;;;;;;5081456;28;21117;-82
2022/09/20 11:08:21;;;;;;;3.53;1.67;;;16.10;99.90;;;;;;5084344;28;20488;-81
2022/09/20 11:10:53;;;;;;;2.60;1.70;;;16.10;99.90;;;;;;5072164;28;20488;-82
2022/09/20 11:13:27;;;;;;;3.70;1.47;;;15.90;99.90;;;;;;5077169;28;20964;-81
2022/09/20 11:16:02;;;;;;;5.50;1.73;;;15.70;99.90;;;;;;5089726;28;20492;-82
2022/09/20 11:18:39;;;;;;;6.27;2.30;;;15.70;99.90;;;;;;5082964;28;20475;-82
2022/09/20 11:21:12;;;;;;;2.90;1.90;;;15.70;99.90;;;;;;5075437;28;20498;-81
2022/09/20 11:23:49;;;;;;;2.67;1.73;;;15.40;99.90;;;;;;5079451;28;20473;-81
2022/09/20 11:26:27;;;;;;;1.90;1.70;;;15.50;99.90;;;;;;5092714;28;20874;-81
2022/09/20 11:28:57;;;;;;;1.80;1.70;;;15.70;99.90;;;;;;5085384;28;20481;-82
2022/09/20 11:31:30;;;;;;;2.67;1.83;;;15.80;99.90;;;;;;5091823;28;20967;-82
2022/09/20 11:34:08;;;;;;;1.60;1.50;;;16.00;99.90;;;;;;5084354;28;20509;-82
2022/09/20 11:36:42;;;;;;;4.83;1.80;;;16.00;99.90;;;;;;5075003;28;20473;-82
2022/09/20 11:39:15;;;;;;;2.13;1.43;;;16.20;99.90;;;;;;5076510;28;20535;-81
2022/09/20 11:41:44;;;;;;;4.33;1.80;;;16.10;99.90;;;;;;5082276;28;20444;-82
2022/09/20 11:44:16;;;;;;;2.77;2.00;;;16.20;99.90;;;;;;5078241;28;21263;-80
2022/09/20 11:46:51;;;;;;;4.30;1.87;;;16.10;99.90;;;;;;5079433;28;20457;-82
2022/09/20 11:49:27;;;;;;;2.87;1.60;;;16.10;99.90;;;;;;5083497;28;20479;-81
2022/09/20 11:52:29;;;;;;;1.60;1.50;;;16.00;99.90;;;;;;5078572;28;20472;-81
2022/09/20 11:55:13;;;;;;;3.13;1.80;;;16.00;99.90;;;;;;5077893;28;20490;-82
2022/09/20 11:57:41;;;;;;;2.87;1.90;;;15.90;99.90;;;;;;5090721;28;20507;-81
2022/09/20 12:00:11;;;;;;;3.87;2.07;;;16.10;99.90;;;;;;5085440;28;20446;-83
2022/09/20 12:02:47;;;;;;;2.77;2.13;;;16.10;99.90;;;;;;5079075;28;20580;-81
2022/09/20 12:05:32;;;;;;;2.90;1.73;;;16.30;99.90;;;;;;5076684;28;20478;-80
2022/09/20 12:08:02;;;;;;;2.40;1.60;;;16.40;99.90;;;;;;5075718;28;20485;-81
2022/09/20 12:10:34;;;;;;;1.63;1.53;;;16.50;99.90;;;;;;5078065;28;20483;-81
2022/09/20 12:13:04;;;;;;;2.70;1.47;;;16.70;99.90;;;;;;5092917;28;20453;-82
2022/09/20 12:15:34;;;;;;;1.80;1.60;;;16.90;99.90;;;;;;5075846;28;20461;-81
2022/09/20 12:18:26;;;;;;;2.03;1.83;;;16.80;99.90;;;;;;5087216;28;20921;-81
2022/09/20 12:21:16;;;;;;;2.10;1.57;;;16.90;99.90;;;;;;5080197;28;20466;-82
2022/09/20 12:24:01;;;;;;;1.80;1.60;;;16.50;99.90;;;;;;5077481;28;20855;-81
2022/09/20 12:26:40;;;;;;;2.70;1.80;;;16.50;99.90;;;;;;5079228;28;20457;-77
2022/09/20 12:29:51;;;;;;;4.10;2.10;;;16.50;99.90;;;;;;5079972;28;20614;-77
2022/09/20 12:32:49;;;;;;;5.00;1.60;;;16.40;99.90;;;;;;5078494;28;20461;-77
2022/09/20 12:35:59;;;;;;;1.53;1.43;;;16.50;99.90;;;;;;5072849;28;20485;-77
2022/09/20 12:39:03;;;;;;;2.70;1.30;;;16.40;99.90;;;;;;5070328;28;20838;-77
2022/09/20 12:41:49;;;;;;;3.80;1.53;;;16.50;99.90;;;;;;5076986;28;20464;-81
2022/09/20 12:44:32;;;;;;;3.80;1.30;;;16.60;99.90;;;;;;5076688;28;20479;-77
2022/09/20 12:47:03;;;;;;;2.00;1.60;;;16.50;99.90;;;;;;5075348;28;20557;-77
2022/09/20 12:55:39;;;;;;;2.10;2.00;;;16.80;99.90;;;;;;5075718;28;20572;-77
2022/09/20 12:58:21;;;;;;;1.47;1.37;;;17.00;99.90;;;;;;5080519;28;20823;-77
2022/09/20 13:01:11;;;;;;;4.70;1.58;;;17.10;99.90;;;;;;5080426;28;20437;-81
2022/09/20 13:03:43;;;;;;;1.57;1.10;;;17.10;99.90;;;;;;5080929;28;20285;-79
2022/09/20 13:06:24;;;;;;;1.43;1.33;;;17.20;99.90;;;;;;5080987;28;20452;-81
2022/09/20 13:09:04;;;;;;;2.07;1.50;;;17.30;99.90;;;;;;5088980;28;20840;-80
2022/09/20 13:11:39;;;;;;;2.77;1.10;;;17.30;99.90;;;;;;5091473;28;20442;-80
2022/09/20 13:14:13;;;;;;;2.27;1.10;;;17.10;99.90;;;;;;5091471;28;20466;-79
2022/09/20 13:16:51;;;;;;;2.40;1.20;;;17.10;99.90;;;;;;5083064;28;20531;-81
2022/09/20 13:19:22;;;;;;;1.40;1.30;;;17.10;99.90;;;;;;5076507;28;20801;-80
2022/09/20 13:21:56;;;;;;;3.80;1.10;;;17.20;99.90;;;;;;5072577;28;20932;-80
2022/09/20 13:24:27;;;;;;;2.90;1.33;;;17.10;99.90;;;;;;5090601;28;20465;-83
2022/09/20 13:27:02;;;;;;;2.37;1.60;;;17.20;99.90;;;;;;5086791;28;21092;-83
2022/09/20 13:29:33;;;;;;;1.33;1.20;;;17.30;99.90;;;;;;5082553;28;20561;-80
2022/09/20 13:32:17;;;;;;;1.90;1.43;;;17.30;99.90;;;;;;5085890;28;20451;-79
2022/09/20 13:34:45;;;;;;;2.50;1.30;;;17.20;99.90;;;;;;5073179;28;20421;-81
2022/09/20 13:37:19;;;;;;;1.60;1.20;;;17.20;99.90;;;;;;5073570;28;20463;-80
2022/09/20 13:39:53;;;;;;;2.63;1.50;;;17.10;99.90;;;;;;5079789;28;20948;-80
2022/09/20 13:42:23;;;;;;;1.40;1.20;;;16.60;99.50;;;;;;5078947;28;20501;-78
2022/09/20 13:44:51;;;;;;;1.30;1.20;;;16.60;98.20;;;;;;5070878;28;20486;-77
2022/09/20 13:47:25;;;;;;;2.53;1.20;;;16.60;98.10;;;;;;5075562;28;20531;-78
2022/09/20 13:49:59;;;;;;;1.83;1.30;;;16.50;98.70;;;;;;5076697;28;20227;-76
2022/09/20 13:52:30;;;;;;;3.27;1.63;;;16.50;98.90;;;;;;5073395;28;20459;-76
2022/09/20 13:54:58;;;;;;;1.37;1.27;;;16.40;98.00;;;;;;5073177;28;20485;-78
2022/09/20 13:57:30;;;;;;;2.93;1.57;;;16.30;97.30;;;;;;5077720;28;20509;-77
2022/09/20 14:00:00;;;;;;;4.17;1.63;;;16.30;98.90;;;;;;5075854;28;20641;-76
2022/09/20 14:02:32;;;;;;;4.83;1.40;;;16.30;99.00;;;;;;5075114;28;20456;-77
2022/09/20 14:05:02;;;;;;;2.30;1.70;;;16.30;99.50;;;;;;5078898;28;21251;-76
2022/09/20 14:07:31;;;;;;;2.03;1.47;;;16.20;99.00;;;;;;5071459;28;20205;-76
2022/09/20 14:10:00;;;;;;;2.03;1.80;;;16.20;98.10;;;;;;5077944;28;20466;-76